sensor_id;sensor_type;location;lat;lon;timestamp;temperature;humidity
26035;DHT22;13809;48.632;11.576;2023-05-07T00:04:38;17.80;34.60
26035;DHT22;13809;48.632;11.576;2023-05-07T00:09:41;17.80;34.90
26035;DHT22;13809;48.632;11.576;2023-05-07T00:14:44;17.70;34.50
26035;DHT22;13809;48.632;11.576;2023-05-07T00:19:49;17.70;34.50
26035;DHT22;13809;48.632;11.576;2023-05-07T00:24:52;17.60;34.40
26035;DHT22;13809;48.632;11.576;2023-05-07T00:29:55;17.60;34.40
26035;DHT22;13809;48.632;11.576;2023-05-07T00:35:00;17.50;34.30
26035;DHT22;13809;48.632;11.576;2023-05-07T00:40:04;17.50;34.30
26035;DHT22;13809;48.632;11.576;2023-05-07T00:45:09;17.40;34.20
26035;DHT22;13809;48.632;11.576;2023-05-07T00:50:14;17.40;34.20
26035;DHT22;13809;48.632;11.576;2023-05-07T00:55:17;17.30;34.50
26035;DHT22;13809;48.632;11.576;2023-05-07T01:00:21;17.30;34.10
26035;DHT22;13809;48.632;11.576;2023-05-07T01:05:26;17.20;34.00
26035;DHT22;13809;48.632;11.576;2023-05-07T01:10:30;17.10;34.90
26035;DHT22;13809;48.632;11.576;2023-05-07T01:15:33;17.00;34.10
26035;DHT22;13809;48.632;11.576;2023-05-07T01:20:38;16.80;34.30
26035;DHT22;13809;48.632;11.576;2023-05-07T01:25:42;16.70;35.10
26035;DHT22;13809;48.632;11.576;2023-05-07T01:30:48;16.60;35.30
26035;DHT22;13809;48.632;11.576;2023-05-07T01:35:53;16.60;35.40
26035;DHT22;13809;48.632;11.576;2023-05-07T01:40:58;16.50;35.40
26035;DHT22;13809;48.632;11.576;2023-05-07T01:46:03;16.50;35.60
26035;DHT22;13809;48.632;11.576;2023-05-07T01:51:08;16.50;35.50
26035;DHT22;13809;48.632;11.576;2023-05-07T01:56:13;16.50;35.50
26035;DHT22;13809;48.632;11.576;2023-05-07T02:01:16;16.50;35.60
26035;DHT22;13809;48.632;11.576;2023-05-07T02:06:19;16.50;35.40
26035;DHT22;13809;48.632;11.576;2023-05-07T02:11:24;16.40;35.40
26035;DHT22;13809;48.632;11.576;2023-05-07T02:16:27;16.40;35.50
26035;DHT22;13809;48.632;11.576;2023-05-07T02:21:30;16.40;35.40
26035;DHT22;13809;48.632;11.576;2023-05-07T02:26:35;16.30;35.60
26035;DHT22;13809;48.632;11.576;2023-05-07T02:31:38;16.30;35.90
26035;DHT22;13809;48.632;11.576;2023-05-07T02:36:41;16.20;35.50
26035;DHT22;13809;48.632;11.576;2023-05-07T02:41:46;16.20;35.50
26035;DHT22;13809;48.632;11.576;2023-05-07T02:46:49;16.20;36.50
26035;DHT22;13809;48.632;11.576;2023-05-07T02:51:52;16.10;35.60
26035;DHT22;13809;48.632;11.576;2023-05-07T02:56:56;16.10;35.60
26035;DHT22;13809;48.632;11.576;2023-05-07T03:02:00;16.10;35.90
26035;DHT22;13809;48.632;11.576;2023-05-07T03:07:03;16.00;35.60
26035;DHT22;13809;48.632;11.576;2023-05-07T03:12:07;16.00;35.60
26035;DHT22;13809;48.632;11.576;2023-05-07T03:17:11;16.00;36.00
26035;DHT22;13809;48.632;11.576;2023-05-07T03:22:14;16.00;35.80
26035;DHT22;13809;48.632;11.576;2023-05-07T03:27:19;16.00;35.90
26035;DHT22;13809;48.632;11.576;2023-05-07T03:32:22;15.90;36.00
26035;DHT22;13809;48.632;11.576;2023-05-07T03:37:25;15.90;36.00
26035;DHT22;13809;48.632;11.576;2023-05-07T03:42:30;15.90;35.90
26035;DHT22;13809;48.632;11.576;2023-05-07T03:47:33;15.90;36.00
26035;DHT22;13809;48.632;11.576;2023-05-07T03:52:36;15.90;35.80
26035;DHT22;13809;48.632;11.576;2023-05-07T03:57:41;15.80;35.70
26035;DHT22;13809;48.632;11.576;2023-05-07T04:02:44;15.80;36.10
26035;DHT22;13809;48.632;11.576;2023-05-07T04:07:47;15.80;35.80
26035;DHT22;13809;48.632;11.576;2023-05-07T04:12:52;15.70;35.90
26035;DHT22;13809;48.632;11.576;2023-05-07T04:17:55;15.70;36.20
26035;DHT22;13809;48.632;11.576;2023-05-07T04:22:59;15.60;35.80
26035;DHT22;13809;48.632;11.576;2023-05-07T04:28:04;15.30;35.60
26035;DHT22;13809;48.632;11.576;2023-05-07T04:33:07;15.40;36.40
26035;DHT22;13809;48.632;11.576;2023-05-07T04:38:11;15.30;36.30
26035;DHT22;13809;48.632;11.576;2023-05-07T04:43:15;15.30;36.50
26035;DHT22;13809;48.632;11.576;2023-05-07T04:48:18;15.30;36.80
26035;DHT22;13809;48.632;11.576;2023-05-07T04:53:22;15.30;36.60
26035;DHT22;13809;48.632;11.576;2023-05-07T04:58:27;15.20;36.70
26035;DHT22;13809;48.632;11.576;2023-05-07T05:03:33;15.20;37.40
26035;DHT22;13809;48.632;11.576;2023-05-07T05:08:37;15.30;37.10
26035;DHT22;13809;48.632;11.576;2023-05-07T05:13:41;15.30;37.40
26035;DHT22;13809;48.632;11.576;2023-05-07T05:18:44;15.30;37.90
26035;DHT22;13809;48.632;11.576;2023-05-07T05:23:48;15.40;37.60
26035;DHT22;13809;48.632;11.576;2023-05-07T05:28:52;15.40;37.80
26035;DHT22;13809;48.632;11.576;2023-05-07T05:33:55;15.40;38.40
26035;DHT22;13809;48.632;11.576;2023-05-07T05:38:59;15.40;38.00
26035;DHT22;13809;48.632;11.576;2023-05-07T05:44:03;15.40;38.30
26035;DHT22;13809;48.632;11.576;2023-05-07T05:49:06;15.50;38.80
26035;DHT22;13809;48.632;11.576;2023-05-07T05:54:10;15.50;38.50
26035;DHT22;13809;48.632;11.576;2023-05-07T05:59:15;15.60;38.70
26035;DHT22;13809;48.632;11.576;2023-05-07T06:04:18;15.60;39.20
26035;DHT22;13809;48.632;11.576;2023-05-07T06:09:21;15.70;38.90
26035;DHT22;13809;48.632;11.576;2023-05-07T06:14:26;15.80;39.30
26035;DHT22;13809;48.632;11.576;2023-05-07T06:19:29;15.90;40.20
26035;DHT22;13809;48.632;11.576;2023-05-07T06:24:32;16.00;39.70
26035;DHT22;13809;48.632;11.576;2023-05-07T06:29:37;16.10;40.00
26035;DHT22;13809;48.632;11.576;2023-05-07T06:34:40;16.30;40.70
26035;DHT22;13809;48.632;11.576;2023-05-07T06:39:43;16.40;40.30
26035;DHT22;13809;48.632;11.576;2023-05-07T06:44:48;16.60;40.40
26035;DHT22;13809;48.632;11.576;2023-05-07T06:49:51;16.70;41.10
26035;DHT22;13809;48.632;11.576;2023-05-07T06:54:54;16.90;40.30
26035;DHT22;13809;48.632;11.576;2023-05-07T06:59:59;17.10;40.40
26035;DHT22;13809;48.632;11.576;2023-05-07T07:05:02;17.20;40.60
26035;DHT22;13809;48.632;11.576;2023-05-07T07:10:06;17.40;40.70
26035;DHT22;13809;48.632;11.576;2023-05-07T07:15:12;17.50;40.80
26035;DHT22;13809;48.632;11.576;2023-05-07T07:20:15;17.60;41.30
26035;DHT22;13809;48.632;11.576;2023-05-07T07:25:19;17.80;40.80
26035;DHT22;13809;48.632;11.576;2023-05-07T07:30:23;18.00;41.20
26035;DHT22;13809;48.632;11.576;2023-05-07T07:35:27;18.10;41.50
26035;DHT22;13809;48.632;11.576;2023-05-07T07:40:31;18.30;41.20
26035;DHT22;13809;48.632;11.576;2023-05-07T07:45:36;18.50;41.40
26035;DHT22;13809;48.632;11.576;2023-05-07T07:50:42;18.80;41.60
26035;DHT22;13809;48.632;11.576;2023-05-07T07:55:47;19.00;41.00
26035;DHT22;13809;48.632;11.576;2023-05-07T08:00:51;19.20;41.20
26035;DHT22;13809;48.632;11.576;2023-05-07T08:05:56;19.40;41.50
26035;DHT22;13809;48.632;11.576;2023-05-07T08:11:00;19.70;41.40
26035;DHT22;13809;48.632;11.576;2023-05-07T08:16:05;19.90;41.30
26035;DHT22;13809;48.632;11.576;2023-05-07T08:21:08;20.20;41.20
26035;DHT22;13809;48.632;11.576;2023-05-07T08:26:11;20.40;40.90
26035;DHT22;13809;48.632;11.576;2023-05-07T08:31:16;20.70;40.60
26035;DHT22;13809;48.632;11.576;2023-05-07T08:36:20;21.00;40.60
26035;DHT22;13809;48.632;11.576;2023-05-07T08:41:23;21.20;40.70
26035;DHT22;13809;48.632;11.576;2023-05-07T08:46:31;21.50;40.30
26035;DHT22;13809;48.632;11.576;2023-05-07T08:51:36;21.70;40.00
26035;DHT22;13809;48.632;11.576;2023-05-07T08:56:39;21.80;39.80
26035;DHT22;13809;48.632;11.576;2023-05-07T09:01:44;22.00;39.70
26035;DHT22;13809;48.632;11.576;2023-05-07T09:06:47;22.30;39.90
26035;DHT22;13809;48.632;11.576;2023-05-07T09:11:57;22.40;39.30
26035;DHT22;13809;48.632;11.576;2023-05-07T09:17:02;22.60;38.80
26035;DHT22;13809;48.632;11.576;2023-05-07T09:22:06;22.70;38.20
26035;DHT22;13809;48.632;11.576;2023-05-07T09:27:09;22.80;38.50
26035;DHT22;13809;48.632;11.576;2023-05-07T09:32:16;23.00;38.00
26035;DHT22;13809;48.632;11.576;2023-05-07T09:37:19;23.10;38.00
26035;DHT22;13809;48.632;11.576;2023-05-07T09:42:23;23.30;37.70
26035;DHT22;13809;48.632;11.576;2023-05-07T09:47:32;23.40;37.10
26035;DHT22;13809;48.632;11.576;2023-05-07T09:52:36;23.60;36.00
26035;DHT22;13809;48.632;11.576;2023-05-07T09:57:40;23.70;36.40
26035;DHT22;13809;48.632;11.576;2023-05-07T10:02:46;23.90;36.00
26035;DHT22;13809;48.632;11.576;2023-05-07T10:07:51;24.00;34.90
26035;DHT22;13809;48.632;11.576;2023-05-07T10:12:55;24.20;35.70
26035;DHT22;13809;48.632;11.576;2023-05-07T10:18:00;24.40;35.40
26035;DHT22;13809;48.632;11.576;2023-05-07T10:23:04;24.50;34.30
26035;DHT22;13809;48.632;11.576;2023-05-07T10:28:10;24.70;34.40
26035;DHT22;13809;48.632;11.576;2023-05-07T10:33:18;24.80;33.60
26035;DHT22;13809;48.632;11.576;2023-05-07T10:38:23;24.90;33.20
26035;DHT22;13809;48.632;11.576;2023-05-07T10:43:39;25.00;33.80
26035;DHT22;13809;48.632;11.576;2023-05-07T10:49:08;25.20;32.20
26035;DHT22;13809;48.632;11.576;2023-05-07T10:54:23;25.20;32.20
26035;DHT22;13809;48.632;11.576;2023-05-07T10:59:33;25.30;31.10
26035;DHT22;13809;48.632;11.576;2023-05-07T11:04:44;25.30;31.50
26035;DHT22;13809;48.632;11.576;2023-05-07T11:09:58;25.40;31.80
26035;DHT22;13809;48.632;11.576;2023-05-07T11:15:03;25.50;31.30
26035;DHT22;13809;48.632;11.576;2023-05-07T11:20:09;25.60;31.90
26035;DHT22;13809;48.632;11.576;2023-05-07T11:25:17;25.80;31.00
26035;DHT22;13809;48.632;11.576;2023-05-07T11:30:22;25.90;30.10
26035;DHT22;13809;48.632;11.576;2023-05-07T11:35:26;26.00;30.70
26035;DHT22;13809;48.632;11.576;2023-05-07T11:40:30;26.00;30.00
26035;DHT22;13809;48.632;11.576;2023-05-07T11:45:33;26.20;30.40
26035;DHT22;13809;48.632;11.576;2023-05-07T11:50:50;26.30;30.40
26035;DHT22;13809;48.632;11.576;2023-05-07T11:55:54;26.40;29.40
26035;DHT22;13809;48.632;11.576;2023-05-07T12:00:58;26.40;29.50
26035;DHT22;13809;48.632;11.576;2023-05-07T12:06:03;26.40;29.40
26035;DHT22;13809;48.632;11.576;2023-05-07T12:11:09;26.40;29.40
26035;DHT22;13809;48.632;11.576;2023-05-07T12:16:13;26.40;29.40
26035;DHT22;13809;48.632;11.576;2023-05-07T12:21:18;26.50;29.50
26035;DHT22;13809;48.632;11.576;2023-05-07T12:26:21;26.50;28.90
26035;DHT22;13809;48.632;11.576;2023-05-07T12:31:25;26.50;29.50
26035;DHT22;13809;48.632;11.576;2023-05-07T12:36:37;26.50;28.90
26035;DHT22;13809;48.632;11.576;2023-05-07T12:41:53;26.50;27.90
26035;DHT22;13809;48.632;11.576;2023-05-07T12:46:57;26.50;28.30
26035;DHT22;13809;48.632;11.576;2023-05-07T12:52:01;26.60;28.60
26035;DHT22;13809;48.632;11.576;2023-05-07T12:57:06;26.60;28.20
26035;DHT22;13809;48.632;11.576;2023-05-07T13:02:10;26.60;28.70
26035;DHT22;13809;48.632;11.576;2023-05-07T13:07:15;26.60;28.40
26035;DHT22;13809;48.632;11.576;2023-05-07T13:12:18;26.60;28.30
26035;DHT22;13809;48.632;11.576;2023-05-07T13:17:21;26.50;28.60
26035;DHT22;13809;48.632;11.576;2023-05-07T13:22:26;26.50;28.00
26035;DHT22;13809;48.632;11.576;2023-05-07T13:27:29;26.50;27.60
26035;DHT22;13809;48.632;11.576;2023-05-07T13:32:32;26.50;28.00
26035;DHT22;13809;48.632;11.576;2023-05-07T13:37:37;26.50;27.80
26035;DHT22;13809;48.632;11.576;2023-05-07T13:42:40;26.50;27.10
26035;DHT22;13809;48.632;11.576;2023-05-07T13:47:44;26.50;27.30
26035;DHT22;13809;48.632;11.576;2023-05-07T13:52:48;26.50;27.00
26035;DHT22;13809;48.632;11.576;2023-05-07T13:57:56;26.50;27.20
26035;DHT22;13809;48.632;11.576;2023-05-07T14:02:59;26.50;27.20
26035;DHT22;13809;48.632;11.576;2023-05-07T14:08:04;26.50;27.60
26035;DHT22;13809;48.632;11.576;2023-05-07T14:13:07;26.50;27.30
26035;DHT22;13809;48.632;11.576;2023-05-07T14:18:10;26.40;27.60
26035;DHT22;13809;48.632;11.576;2023-05-07T14:23:15;26.40;27.80
26035;DHT22;13809;48.632;11.576;2023-05-07T14:28:19;26.40;27.30
26035;DHT22;13809;48.632;11.576;2023-05-07T14:33:22;26.40;27.70
26035;DHT22;13809;48.632;11.576;2023-05-07T14:38:27;26.40;27.50
26035;DHT22;13809;48.632;11.576;2023-05-07T14:43:30;26.40;27.60
26035;DHT22;13809;48.632;11.576;2023-05-07T14:48:33;26.40;27.60
26035;DHT22;13809;48.632;11.576;2023-05-07T14:53:38;26.50;27.70
26035;DHT22;13809;48.632;11.576;2023-05-07T14:58:41;26.40;27.50
26035;DHT22;13809;48.632;11.576;2023-05-07T15:03:44;26.50;27.30
26035;DHT22;13809;48.632;11.576;2023-05-07T15:08:49;26.50;27.30
26035;DHT22;13809;48.632;11.576;2023-05-07T15:13:52;26.40;26.90
26035;DHT22;13809;48.632;11.576;2023-05-07T15:18:55;26.40;27.20
26035;DHT22;13809;48.632;11.576;2023-05-07T15:24:00;26.40;27.30
26035;DHT22;13809;48.632;11.576;2023-05-07T15:29:03;26.40;27.00
26035;DHT22;13809;48.632;11.576;2023-05-07T15:34:12;26.30;27.10
26035;DHT22;13809;48.632;11.576;2023-05-07T15:39:18;26.30;27.10
26035;DHT22;13809;48.632;11.576;2023-05-07T15:44:22;26.30;27.10
26035;DHT22;13809;48.632;11.576;2023-05-07T15:49:29;26.20;27.20
26035;DHT22;13809;48.632;11.576;2023-05-07T15:54:33;26.20;27.10
26035;DHT22;13809;48.632;11.576;2023-05-07T15:59:36;26.20;26.90
26035;DHT22;13809;48.632;11.576;2023-05-07T16:04:40;26.10;26.80
26035;DHT22;13809;48.632;11.576;2023-05-07T16:09:44;26.10;27.20
26035;DHT22;13809;48.632;11.576;2023-05-07T16:14:48;26.00;27.20
26035;DHT22;13809;48.632;11.576;2023-05-07T16:19:52;26.00;27.40
26035;DHT22;13809;48.632;11.576;2023-05-07T16:24:57;26.00;27.30
26035;DHT22;13809;48.632;11.576;2023-05-07T16:30:00;25.90;27.20
26035;DHT22;13809;48.632;11.576;2023-05-07T16:35:04;25.90;27.30
26035;DHT22;13809;48.632;11.576;2023-05-07T16:40:10;25.80;27.50
26035;DHT22;13809;48.632;11.576;2023-05-07T16:45:13;25.80;27.30
26035;DHT22;13809;48.632;11.576;2023-05-07T16:50:17;25.70;27.40
26035;DHT22;13809;48.632;11.576;2023-05-07T16:55:21;25.70;27.40
26035;DHT22;13809;48.632;11.576;2023-05-07T17:00:25;25.60;27.40
26035;DHT22;13809;48.632;11.576;2023-05-07T17:05:35;25.50;27.60
26035;DHT22;13809;48.632;11.576;2023-05-07T17:10:41;25.50;27.50
26035;DHT22;13809;48.632;11.576;2023-05-07T17:15:46;25.40;27.30
26035;DHT22;13809;48.632;11.576;2023-05-07T17:20:50;25.40;27.40
26035;DHT22;13809;48.632;11.576;2023-05-07T17:25:55;25.20;27.40
26035;DHT22;13809;48.632;11.576;2023-05-07T17:30:58;25.20;27.50
26035;DHT22;13809;48.632;11.576;2023-05-07T17:36:01;25.10;27.70
26035;DHT22;13809;48.632;11.576;2023-05-07T17:41:06;25.00;27.60
26035;DHT22;13809;48.632;11.576;2023-05-07T17:46:09;24.90;27.70
26035;DHT22;13809;48.632;11.576;2023-05-07T17:51:12;24.80;27.80
26035;DHT22;13809;48.632;11.576;2023-05-07T17:56:17;24.70;27.70
26035;DHT22;13809;48.632;11.576;2023-05-07T18:01:21;24.60;27.60
26035;DHT22;13809;48.632;11.576;2023-05-07T18:06:24;24.50;27.80
26035;DHT22;13809;48.632;11.576;2023-05-07T18:11:28;24.50;27.90
26035;DHT22;13809;48.632;11.576;2023-05-07T18:16:33;24.40;27.60
26035;DHT22;13809;48.632;11.576;2023-05-07T18:21:36;24.30;27.70
26035;DHT22;13809;48.632;11.576;2023-05-07T18:26:41;24.20;27.80
26035;DHT22;13809;48.632;11.576;2023-05-07T18:31:45;24.10;27.90
26035;DHT22;13809;48.632;11.576;2023-05-07T18:36:48;24.10;28.10
26035;DHT22;13809;48.632;11.576;2023-05-07T18:41:52;24.00;28.00
26035;DHT22;13809;48.632;11.576;2023-05-07T18:46:56;23.90;27.90
26035;DHT22;13809;48.632;11.576;2023-05-07T18:51:59;23.80;27.90
26035;DHT22;13809;48.632;11.576;2023-05-07T18:57:04;23.70;27.80
26035;DHT22;13809;48.632;11.576;2023-05-07T19:02:07;23.60;27.80
26035;DHT22;13809;48.632;11.576;2023-05-07T19:07:10;23.50;27.70
26035;DHT22;13809;48.632;11.576;2023-05-07T19:12:15;23.40;27.90
26035;DHT22;13809;48.632;11.576;2023-05-07T19:17:18;23.30;28.10
26035;DHT22;13809;48.632;11.576;2023-05-07T19:22:23;23.20;28.00
26035;DHT22;13809;48.632;11.576;2023-05-07T19:27:28;23.10;28.00
26035;DHT22;13809;48.632;11.576;2023-05-07T19:32:31;23.00;28.40
26035;DHT22;13809;48.632;11.576;2023-05-07T19:37:35;22.80;28.30
26035;DHT22;13809;48.632;11.576;2023-05-07T19:42:40;22.70;28.40
26035;DHT22;13809;48.632;11.576;2023-05-07T19:47:43;22.60;28.60
26035;DHT22;13809;48.632;11.576;2023-05-07T19:52:46;22.50;28.60
26035;DHT22;13809;48.632;11.576;2023-05-07T19:57:51;22.40;28.60
26035;DHT22;13809;48.632;11.576;2023-05-07T20:02:54;22.30;28.70
26035;DHT22;13809;48.632;11.576;2023-05-07T20:07:58;22.20;28.70
26035;DHT22;13809;48.632;11.576;2023-05-07T20:13:02;22.10;29.00
26035;DHT22;13809;48.632;11.576;2023-05-07T20:18:06;22.10;29.20
26035;DHT22;13809;48.632;11.576;2023-05-07T20:23:09;22.00;29.10
26035;DHT22;13809;48.632;11.576;2023-05-07T20:28:14;22.00;29.20
26035;DHT22;13809;48.632;11.576;2023-05-07T20:33:17;21.90;29.30
26035;DHT22;13809;48.632;11.576;2023-05-07T20:38:20;21.90;29.30
26035;DHT22;13809;48.632;11.576;2023-05-07T20:43:25;21.80;29.30
26035;DHT22;13809;48.632;11.576;2023-05-07T20:48:28;21.80;29.50
26035;DHT22;13809;48.632;11.576;2023-05-07T20:53:33;21.70;29.40
26035;DHT22;13809;48.632;11.576;2023-05-07T20:58:39;21.70;29.30
26035;DHT22;13809;48.632;11.576;2023-05-07T21:03:42;21.60;29.40
26035;DHT22;13809;48.632;11.576;2023-05-07T21:08:46;21.50;29.40
26035;DHT22;13809;48.632;11.576;2023-05-07T21:13:50;21.50;29.50
26035;DHT22;13809;48.632;11.576;2023-05-07T21:18:53;21.40;29.80
26035;DHT22;13809;48.632;11.576;2023-05-07T21:23:57;21.30;29.60
26035;DHT22;13809;48.632;11.576;2023-05-07T21:29:01;21.30;29.80
26035;DHT22;13809;48.632;11.576;2023-05-07T21:34:04;21.20;30.00
26035;DHT22;13809;48.632;11.576;2023-05-07T21:39:08;21.20;29.90
26035;DHT22;13809;48.632;11.576;2023-05-07T21:44:14;21.10;29.90
26035;DHT22;13809;48.632;11.576;2023-05-07T21:49:17;21.10;30.10
26035;DHT22;13809;48.632;11.576;2023-05-07T21:54:20;21.10;30.00
26035;DHT22;13809;48.632;11.576;2023-05-07T21:59:25;21.00;30.00
26035;DHT22;13809;48.632;11.576;2023-05-07T22:04:28;21.00;30.20
26035;DHT22;13809;48.632;11.576;2023-05-07T22:09:31;21.00;30.10
26035;DHT22;13809;48.632;11.576;2023-05-07T22:14:35;20.90;30.10
26035;DHT22;13809;48.632;11.576;2023-05-07T22:19:39;20.90;30.40
26035;DHT22;13809;48.632;11.576;2023-05-07T22:24:42;20.80;30.30
26035;DHT22;13809;48.632;11.576;2023-05-07T22:29:46;20.80;30.40
26035;DHT22;13809;48.632;11.576;2023-05-07T22:34:49;20.70;30.80
26035;DHT22;13809;48.632;11.576;2023-05-07T22:39:52;20.70;30.70
26035;DHT22;13809;48.632;11.576;2023-05-07T22:44:57;20.60;30.60
26035;DHT22;13809;48.632;11.576;2023-05-07T22:50:00;20.60;31.10
26035;DHT22;13809;48.632;11.576;2023-05-07T22:55:06;20.50;30.80
26035;DHT22;13809;48.632;11.576;2023-05-07T23:00:12;20.50;30.80
26035;DHT22;13809;48.632;11.576;2023-05-07T23:05:16;20.50;31.30
26035;DHT22;13809;48.632;11.576;2023-05-07T23:10:19;20.50;31.10
26035;DHT22;13809;48.632;11.576;2023-05-07T23:15:24;20.40;31.00
26035;DHT22;13809;48.632;11.576;2023-05-07T23:20:27;20.40;31.40
26035;DHT22;13809;48.632;11.576;2023-05-07T23:25:30;20.30;31.30
26035;DHT22;13809;48.632;11.576;2023-05-07T23:30:35;20.30;31.30
26035;DHT22;13809;48.632;11.576;2023-05-07T23:35:38;20.30;31.80
26035;DHT22;13809;48.632;11.576;2023-05-07T23:40:41;20.20;31.40
26035;DHT22;13809;48.632;11.576;2023-05-07T23:45:46;20.20;31.40
26035;DHT22;13809;48.632;11.576;2023-05-07T23:50:49;20.10;31.80
26035;DHT22;13809;48.632;11.576;2023-05-07T23:55:52;20.10;31.60
